Terminal Aerodrome Forecast
Issued by NWS

Home | Current Version | Previous Version | Text Only | Print | Product List | Glossary On
Versions: 1 2 3 4 5 6 7 8 9 10 11 12 13 14 15 16 17 18 19 20 21 22 23 24 25 26 27 28 29 30 31 32 33 34 35 36 37 38
000
FTUS44 KLIX 281129
TAFHDC
TAF
KHDC 281129Z 2812/2912 00000KT P6SM SKC
     FM281500 10003KT P6SM BKN020
     FM281700 16005KT P6SM SCT040
     FM290100 00000KT P6SM SKC
      TEMPO 2908/2912 2SM BR BKN002=

USA.gov is the U.S. government's official web portal to all federal, state and local government web resources and services.